Time;durP1;ratioP1;P1;durP2;ratioP2;P2;SDS_P1;SDS_P2;PMS_P1;PMS_P2;Temp;Humidity;BMP_temperature;BMP_pressure;BME280_temperature;BME280_humidity;BME280_pressure;Samples;Min_cycle;Max_cycle;Signal;HPM_P1;HPM_P2
2021/08/25 00:00:25;;;;;;;4.78;2.70;;;;;;;12.25;100.00;102579.88;10457734;28;20080;-69
2021/08/25 00:05:28;;;;;;;5.72;2.45;;;;;;;12.27;100.00;102580.66;10457507;28;20504;-67
2021/08/25 00:10:30;;;;;;;5.78;3.05;;;;;;;12.25;100.00;102577.25;10457344;28;20493;-66
2021/08/25 00:15:38;;;;;;;7.65;2.63;;;;;;;12.17;100.00;102576.66;10457400;28;20063;-66
2021/08/25 00:20:40;;;;;;;4.93;2.35;;;;;;;12.30;100.00;102570.03;10457647;28;20057;-67
2021/08/25 00:25:43;;;;;;;2.70;2.45;;;;;;;12.20;100.00;102568.66;10456911;28;20057;-67
2021/08/25 00:30:45;;;;;;;4.28;2.42;;;;;;;12.06;100.00;102567.41;10456921;28;20052;-66
2021/08/25 00:35:47;;;;;;;7.43;3.10;;;;;;;12.04;100.00;102563.13;10457105;28;20063;-67
2021/08/25 00:40:50;;;;;;;3.67;2.85;;;;;;;11.95;100.00;102576.56;10456711;28;20056;-65
2021/08/25 00:45:52;;;;;;;3.28;2.40;;;;;;;11.95;100.00;102571.31;10456721;28;20053;-66
2021/08/25 00:50:54;;;;;;;3.92;3.00;;;;;;;11.92;100.00;102564.41;10456966;28;20136;-67
2021/08/25 00:55:58;;;;;;;6.60;3.72;;;;;;;11.78;100.00;102564.84;10457494;28;20048;-65
2021/08/25 01:01:16;;;;;;;5.65;3.13;;;;;;;11.69;100.00;102560.75;10464763;28;20485;-68
2021/08/25 01:06:22;;;;;;;4.03;3.20;;;;;;;11.76;100.00;102560.56;10463274;28;20041;-67
2021/08/25 01:11:24;;;;;;;5.32;3.08;;;;;;;11.71;100.00;102551.06;10463927;28;20051;-68
2021/08/25 01:16:27;;;;;;;4.40;2.50;;;;;;;11.60;100.00;102547.09;10464250;28;20045;-67
2021/08/25 01:21:29;;;;;;;5.63;3.78;;;;;;;11.64;100.00;102548.72;10464246;28;20059;-69
2021/08/25 01:26:32;;;;;;;5.53;3.70;;;;;;;11.68;100.00;102547.69;10462488;28;20056;-68
2021/08/25 01:31:34;;;;;;;5.07;3.65;;;;;;;11.62;100.00;102547.94;10464224;28;20056;-68
2021/08/25 01:36:37;;;;;;;4.43;3.15;;;;;;;11.48;100.00;102538.75;10463322;28;20059;-69
2021/08/25 01:41:39;;;;;;;8.70;3.60;;;;;;;11.42;100.00;102536.31;10462165;28;20489;-67
2021/08/25 01:46:43;;;;;;;4.10;3.13;;;;;;;11.45;100.00;102527.50;10463421;28;20447;-68
2021/08/25 01:51:45;;;;;;;5.53;3.35;;;;;;;11.53;100.00;102528.97;10461888;28;20075;-70
2021/08/25 01:56:47;;;;;;;7.75;4.47;;;;;;;11.46;100.00;102529.22;10462555;28;20526;-67
2021/08/25 02:01:50;;;;;;;5.85;3.90;;;;;;;11.33;100.00;102515.63;10462882;28;20056;-67
2021/08/25 02:06:54;;;;;;;7.97;3.67;;;;;;;11.40;100.00;102513.66;10462183;28;20049;-68
2021/08/25 02:11:56;;;;;;;4.45;3.95;;;;;;;11.31;100.00;102512.22;10462417;28;20052;-69
2021/08/25 02:16:58;;;;;;;8.77;4.03;;;;;;;11.34;100.00;102517.34;10461921;28;20049;-68
2021/08/25 02:22:01;;;;;;;7.40;3.95;;;;;;;11.28;100.00;102517.56;10461846;28;20485;-68
2021/08/25 02:27:03;;;;;;;9.13;4.97;;;;;;;11.15;100.00;102520.59;10461270;28;20060;-67
2021/08/25 02:32:07;;;;;;;10.13;4.70;;;;;;;11.17;100.00;102502.19;10462226;28;20041;-67
2021/08/25 02:37:09;;;;;;;7.63;5.38;;;;;;;11.15;100.00;102499.63;10461754;28;20045;-67
2021/08/25 02:42:12;;;;;;;8.00;4.70;;;;;;;11.26;100.00;102494.03;10461047;28;20045;-68
2021/08/25 02:47:14;;;;;;;7.88;4.32;;;;;;;11.05;100.00;102489.50;10460850;28;20045;-68
2021/08/25 02:52:16;;;;;;;8.75;4.88;;;;;;;11.01;100.00;102493.09;10460771;28;20055;-69
2021/08/25 02:57:19;;;;;;;7.60;4.60;;;;;;;11.00;100.00;102483.53;10460525;28;20057;-66
2021/08/25 03:02:21;;;;;;;7.50;5.13;;;;;;;10.90;100.00;102486.44;10460030;28;20393;-67
2021/08/25 03:07:23;;;;;;;5.63;4.13;;;;;;;11.04;100.00;102472.03;10459830;28;20523;-68
2021/08/25 03:12:26;;;;;;;8.32;5.18;;;;;;;10.79;100.00;102478.06;10460026;28;20053;-67
2021/08/25 03:17:28;;;;;;;6.97;5.70;;;;;;;10.78;100.00;102484.22;10459586;28;20090;-68
2021/08/25 03:22:30;;;;;;;6.93;4.82;;;;;;;10.69;100.00;102481.88;10459423;28;20049;-67
2021/08/25 03:27:33;;;;;;;7.15;5.30;;;;;;;10.66;100.00;102471.47;10459311;28;20048;-68
2021/08/25 03:32:35;;;;;;;6.78;5.03;;;;;;;10.75;100.00;102461.56;10458820;28;20390;-68
2021/08/25 03:37:38;;;;;;;8.90;5.32;;;;;;;10.81;100.00;102464.91;10458894;28;20052;-67
2021/08/25 03:42:40;;;;;;;5.57;4.15;;;;;;;10.79;100.00;102459.72;10458524;28;20072;-67
2021/08/25 03:47:43;;;;;;;10.20;5.65;;;;;;;10.76;100.00;102449.34;10458787;28;20061;-68
2021/08/25 03:52:45;;;;;;;8.80;5.55;;;;;;;10.77;100.00;102446.66;10458229;28;20053;-67
2021/08/25 03:57:47;;;;;;;8.10;5.43;;;;;;;10.68;100.00;102443.50;10458344;28;20041;-68
2021/08/25 04:02:50;;;;;;;6.50;5.30;;;;;;;10.67;100.00;102434.75;10457675;28;20505;-67
2021/08/25 04:07:53;;;;;;;11.35;6.40;;;;;;;10.59;100.00;102435.03;10457815;28;20041;-68
2021/08/25 04:12:56;;;;;;;10.65;5.90;;;;;;;10.59;100.00;102431.53;10456645;28;20464;-68
2021/08/25 04:17:58;;;;;;;8.23;5.50;;;;;;;10.60;100.00;102420.16;10456962;28;20045;-68
2021/08/25 04:23:01;;;;;;;16.48;6.50;;;;;;;10.63;100.00;102425.31;10457046;28;20447;-67
2021/08/25 04:28:03;;;;;;;11.35;7.53;;;;;;;10.49;100.00;102424.88;10456979;28;20063;-69
2021/08/25 04:33:06;;;;;;;7.60;6.03;;;;;;;10.64;100.00;102418.28;10455919;28;20491;-67
2021/08/25 04:38:08;;;;;;;9.07;5.72;;;;;;;10.55;100.00;102414.22;10456598;28;20477;-67
2021/08/25 04:43:11;;;;;;;10.07;7.38;;;;;;;10.52;100.00;102422.16;10456607;28;20045;-68
2021/08/25 04:48:13;;;;;;;8.35;5.68;;;;;;;10.57;100.00;102418.50;10456696;28;20060;-68
2021/08/25 04:53:16;;;;;;;10.77;7.00;;;;;;;10.60;100.00;102420.16;10455371;28;20045;-67
2021/08/25 04:58:18;;;;;;;12.60;6.53;;;;;;;10.68;100.00;102420.78;10456343;28;20049;-69
2021/08/25 05:03:21;;;;;;;14.23;8.35;;;;;;;10.57;100.00;102418.50;10456394;28;20051;-69
2021/08/25 05:08:28;;;;;;;10.13;6.85;;;;;;;10.71;100.00;102415.44;10457059;28;20081;-68
2021/08/25 05:13:30;;;;;;;9.50;6.32;;;;;;;10.74;100.00;102419.72;10456389;28;20049;-68
2021/08/25 05:18:33;;;;;;;10.27;7.40;;;;;;;10.86;100.00;102410.59;10456340;28;20048;-68
2021/08/25 05:23:36;;;;;;;11.55;7.80;;;;;;;10.88;100.00;102414.03;10456076;28;20049;-69
2021/08/25 05:28:38;;;;;;;10.15;6.70;;;;;;;11.02;100.00;102406.56;10455348;28;20052;-67
2021/08/25 05:33:40;;;;;;;11.73;7.22;;;;;;;11.13;100.00;102420.16;10455961;28;20048;-68
2021/08/25 05:38:42;;;;;;;9.35;6.93;;;;;;;11.20;100.00;102414.72;10455366;28;20200;-68
2021/08/25 05:43:45;;;;;;;10.23;7.80;;;;;;;11.36;100.00;102413.25;10459045;28;20489;-69
2021/08/25 05:48:47;;;;;;;9.95;6.63;;;;;;;11.55;100.00;102404.75;10463342;28;20056;-67
2021/08/25 05:53:51;;;;;;;11.60;7.70;;;;;;;11.62;100.00;102404.47;10463017;28;20045;-68
2021/08/25 05:58:54;;;;;;;14.07;7.70;;;;;;;11.82;100.00;102409.00;10462445;28;20394;-68
2021/08/25 06:03:56;;;;;;;10.15;7.47;;;;;;;11.87;100.00;102417.56;10462392;28;20433;-69
2021/08/25 06:08:58;;;;;;;17.40;8.55;;;;;;;12.02;100.00;102416.16;10462015;28;20056;-68
2021/08/25 06:14:01;;;;;;;8.70;6.15;;;;;;;12.25;100.00;102412.69;10462496;28;20060;-68
2021/08/25 06:19:03;;;;;;;14.43;9.23;;;;;;;12.30;100.00;102422.13;10462052;28;20052;-68
2021/08/25 06:24:05;;;;;;;9.73;7.43;;;;;;;12.41;100.00;102420.78;10462066;28;20052;-68
2021/08/25 06:29:08;;;;;;;10.32;8.35;;;;;;;12.43;100.00;102421.59;10461626;28;20071;-71
2021/08/25 06:34:10;;;;;;;11.65;9.23;;;;;;;12.52;100.00;102417.72;10461552;28;20053;-68
2021/08/25 06:39:12;;;;;;;15.75;11.95;;;;;;;12.71;100.00;102425.75;10461293;28;20045;-68
2021/08/25 06:44:15;;;;;;;16.17;12.40;;;;;;;13.00;100.00;102429.81;10460822;28;20485;-69
2021/08/25 06:49:17;;;;;;;16.10;13.43;;;;;;;13.18;100.00;102424.72;10459587;28;20172;-67
2021/08/25 06:54:20;;;;;;;20.50;15.43;;;;;;;13.47;100.00;102422.63;10459506;28;20056;-67
2021/08/25 06:59:22;;;;;;;20.83;12.93;;;;;;;13.52;100.00;102432.03;10461238;28;20044;-67
2021/08/25 07:04:24;;;;;;;12.77;9.65;;;;;;;14.09;100.00;102418.94;10460174;28;20053;-69
2021/08/25 07:09:27;;;;;;;15.88;11.07;;;;;;;14.05;100.00;102419.97;10459733;28;20490;-68
2021/08/25 07:14:29;;;;;;;21.73;17.77;;;;;;;14.11;100.00;102419.72;10460035;28;20061;-68
2021/08/25 07:19:31;;;;;;;16.35;13.15;;;;;;;14.83;100.00;102406.66;10460130;28;20063;-69
2021/08/25 07:24:34;;;;;;;15.32;13.65;;;;;;;15.07;100.00;102398.44;10459697;28;20052;-68
2021/08/25 07:29:36;;;;;;;17.75;13.80;;;;;;;15.31;100.00;102396.31;10459054;28;20405;-67
2021/08/25 07:34:38;;;;;;;16.88;11.75;;;;;;;15.97;95.34;102401.63;10459605;28;20049;-68
2021/08/25 07:39:41;;;;;;;12.10;10.23;;;;;;;17.34;90.70;102384.97;10459068;28;20409;-69
2021/08/25 07:44:43;;;;;;;15.00;11.93;;;;;;;17.60;93.14;102393.09;10458408;28;20504;-68
2021/08/25 07:49:45;;;;;;;12.25;9.40;;;;;;;17.96;88.84;102381.19;10458052;28;20044;-69
2021/08/25 07:54:47;;;;;;;13.63;9.70;;;;;;;18.34;91.28;102383.16;10458692;28;20387;-69
2021/08/25 07:59:50;;;;;;;12.80;9.10;;;;;;;18.94;87.78;102368.59;10457905;28;20519;-68
2021/08/25 08:04:52;;;;;;;13.32;9.90;;;;;;;18.64;83.04;102371.47;10457563;28;20051;-70
2021/08/25 08:09:54;;;;;;;11.43;7.97;;;;;;;19.50;81.86;102368.25;10457549;28;20045;-69
2021/08/25 08:15:00;;;;;;;10.38;6.60;;;;;;;20.19;78.15;102366.00;10457781;28;20052;-69
2021/08/25 08:20:04;;;;;;;6.03;4.78;;;;;;;20.50;77.17;102362.88;10456781;28;20049;-68
2021/08/25 08:25:06;;;;;;;9.90;7.85;;;;;;;20.85;73.18;102354.06;10456980;28;20497;-69
2021/08/25 08:30:09;;;;;;;11.65;9.02;;;;;;;20.49;74.44;102356.69;10457026;28;20060;-68
2021/08/25 08:35:12;;;;;;;9.82;7.53;;;;;;;21.11;75.97;102360.84;10457153;28;20045;-69
2021/08/25 08:40:15;;;;;;;10.07;7.05;;;;;;;21.68;68.26;102350.25;10456631;28;20047;-70
2021/08/25 08:45:17;;;;;;;5.22;4.40;;;;;;;21.32;64.40;102358.34;10456640;28;20125;-69
2021/08/25 08:50:20;;;;;;;8.90;4.93;;;;;;;20.74;64.01;102355.69;10456222;28;20103;-68
2021/08/25 08:55:23;;;;;;;5.18;4.20;;;;;;;21.05;63.09;102342.72;10455885;28;20057;-69
2021/08/25 09:00:25;;;;;;;7.05;3.83;;;;;;;22.29;65.29;102340.91;10456253;28;20045;-68
2021/08/25 09:05:34;;;;;;;5.45;4.22;;;;;;;22.15;60.60;102328.69;10455975;28;20071;-70
2021/08/25 09:10:38;;;;;;;6.95;4.40;;;;;;;22.71;60.07;102324.91;10456531;28;20056;-67
2021/08/25 09:15:42;;;;;;;4.93;3.63;;;;;;;23.84;60.65;102329.34;10455990;28;20382;-68
2021/08/25 09:20:49;;;;;;;4.97;3.13;;;;;;;23.18;58.94;102325.34;10462421;28;20090;-70
2021/08/25 09:25:54;;;;;;;3.55;2.90;;;;;;;22.92;51.56;102320.41;10464015;28;20124;-71
2021/08/25 09:30:59;;;;;;;4.53;3.45;;;;;;;23.98;54.31;102331.66;10463725;28;20489;-68
2021/08/25 09:36:05;;;;;;;5.65;2.55;;;;;;;22.70;49.89;102317.91;10464002;28;20049;-69
2021/08/25 09:41:12;;;;;;;6.57;2.95;;;;;;;24.27;47.67;102312.91;10463522;28;20049;-68
2021/08/25 09:46:26;;;;;;;4.88;2.72;;;;;;;23.43;46.50;102310.66;10463731;28;20049;-69
2021/08/25 09:51:38;;;;;;;3.50;2.75;;;;;;;25.03;50.63;102295.16;10462930;28;20404;-70
2021/08/25 09:56:42;;;;;;;3.92;2.53;;;;;;;25.03;47.79;102292.50;10462683;28;20046;-69
2021/08/25 10:01:45;;;;;;;3.00;2.60;;;;;;;24.69;44.22;102292.19;10462848;28;20056;-70
2021/08/25 10:06:49;;;;;;;3.85;2.22;;;;;;;25.06;43.67;102294.88;10463022;28;20178;-68
2021/08/25 10:11:59;;;;;;;2.40;2.20;;;;;;;26.04;46.16;102294.34;10462590;28;20131;-69
2021/08/25 10:17:01;;;;;;;3.45;2.35;;;;;;;25.25;46.62;102279.69;10461574;28;20076;-68
2021/08/25 10:22:15;;;;;;;2.80;2.22;;;;;;;26.60;45.44;102262.72;10461901;28;20493;-68
2021/08/25 10:27:17;;;;;;;3.20;2.45;;;;;;;25.32;45.99;102270.97;10462571;28;20045;-69
2021/08/25 10:32:20;;;;;;;2.88;2.58;;;;;;;27.45;46.27;102262.81;10460621;28;20045;-69
2021/08/25 10:37:27;;;;;;;4.65;3.13;;;;;;;23.94;43.52;102255.34;10461828;28;20057;-67
2021/08/25 10:42:44;;;;;;;4.80;2.90;;;;;;;27.41;42.52;102254.22;10461199;28;20051;-68
2021/08/25 10:47:57;;;;;;;4.03;3.15;;;;;;;26.33;43.65;102238.56;10461277;28;20049;-69
2021/08/25 10:53:28;;;;;;;3.88;3.38;;;;;;;25.86;43.55;102232.63;10461027;28;20056;-67
2021/08/25 10:58:44;;;;;;;3.83;2.40;;;;;;;27.39;45.09;102233.91;10461750;28;20052;-67
2021/08/25 11:03:48;;;;;;;3.10;2.78;;;;;;;25.91;38.98;102219.59;10460226;28;20049;-68
2021/08/25 11:08:51;;;;;;;3.78;2.88;;;;;;;27.86;39.14;102216.31;10460442;28;20045;-67
2021/08/25 11:13:53;;;;;;;4.00;3.15;;;;;;;27.01;42.68;102203.84;10458661;28;20405;-67
2021/08/25 11:18:55;;;;;;;6.70;4.63;;;;;;;27.59;39.76;102210.22;10459539;28;20052;-68
2021/08/25 11:23:58;;;;;;;5.10;3.13;;;;;;;28.41;38.90;102196.75;10459701;28;20049;-67
2021/08/25 11:29:00;;;;;;;3.10;2.65;;;;;;;27.89;40.03;102191.72;10459269;28;20045;-67
2021/08/25 11:34:03;;;;;;;4.70;2.83;;;;;;;26.17;42.98;102182.06;10459144;28;20053;-66
2021/08/25 11:39:11;;;;;;;3.00;2.63;;;;;;;27.67;42.00;102169.88;10457418;28;20052;-66
2021/08/25 11:44:14;;;;;;;6.80;3.17;;;;;;;28.38;37.59;102167.47;10457496;28;20053;-67
2021/08/25 11:49:17;;;;;;;5.35;3.08;;;;;;;26.50;41.41;102153.56;10458482;28;20056;-66
2021/08/25 11:54:22;;;;;;;4.13;2.95;;;;;;;28.68;39.03;102141.59;10456933;28;20508;-67
2021/08/25 11:59:25;;;;;;;7.00;3.10;;;;;;;27.36;40.03;102142.81;10457793;28;20488;-66
2021/08/25 12:04:27;;;;;;;4.13;3.65;;;;;;;27.99;38.25;102127.81;10457903;28;20045;-67
2021/08/25 12:09:31;;;;;;;7.55;3.40;;;;;;;29.40;37.82;102121.66;10457817;28;20045;-67
2021/08/25 12:15:09;;;;;;;7.35;3.83;;;;;;;27.18;38.49;102116.03;10457438;28;20516;-66
2021/08/25 12:20:12;;;;;;;4.35;3.28;;;;;;;28.94;39.28;102109.97;10431127;28;20051;-66
2021/08/25 12:25:35;;;;;;;6.55;3.28;;;;;;;28.63;38.66;102100.88;10457325;28;20053;-66
2021/08/25 12:30:38;;;;;;;6.60;3.03;;;;;;;30.42;37.51;102101.41;10457203;28;20053;-67
2021/08/25 12:35:41;;;;;;;8.93;5.28;;;;;;;29.20;41.47;102090.75;10456990;28;20074;-66
2021/08/25 12:40:43;;;;;;;9.30;5.50;;;;;;;27.93;40.34;102085.47;10457287;28;20049;-67
2021/08/25 12:45:45;;;;;;;6.85;5.43;;;;;;;27.85;41.80;102080.91;10456727;28;20049;-66
2021/08/25 12:50:48;;;;;;;10.35;6.10;;;;;;;27.98;39.72;102086.63;10456029;28;20551;-65
2021/08/25 12:55:50;;;;;;;6.70;4.85;;;;;;;27.43;42.04;102085.47;10456011;28;20049;-66
2021/08/25 13:00:52;;;;;;;5.30;3.58;;;;;;;29.65;37.29;102092.56;10456070;28;20136;-66
2021/08/25 13:05:55;;;;;;;4.30;3.90;;;;;;;28.60;38.15;102063.50;10456259;28;20118;-65
2021/08/25 13:10:57;;;;;;;6.22;3.72;;;;;;;27.56;42.70;102065.31;10456217;28;20393;-66
2021/08/25 13:15:59;;;;;;;4.53;3.42;;;;;;;28.96;38.97;102056.72;10455888;28;20060;-66
2021/08/25 13:21:02;;;;;;;6.63;3.05;;;;;;;29.68;37.39;102041.97;10455872;28;20440;-65
2021/08/25 13:26:05;;;;;;;5.22;3.65;;;;;;;29.53;40.46;102044.63;10455786;28;20059;-66
2021/08/25 13:31:07;;;;;;;5.47;3.33;;;;;;;30.08;35.97;102040.69;10455946;28;20045;-67
2021/08/25 13:36:09;;;;;;;3.42;2.85;;;;;;;29.07;39.05;102037.44;10455656;28;20056;-67
2021/08/25 13:41:12;;;;;;;7.60;4.25;;;;;;;27.41;43.82;102024.81;10455668;28;20049;-66
2021/08/25 13:46:14;;;;;;;5.65;3.42;;;;;;;26.08;47.13;102028.22;10456027;28;20041;-64
2021/08/25 13:51:16;;;;;;;3.92;3.38;;;;;;;25.70;52.97;102018.75;10455413;28;20049;-66
2021/08/25 13:56:19;;;;;;;8.77;3.40;;;;;;;27.78;45.49;102005.41;10455121;28;20049;-66
2021/08/25 14:01:21;;;;;;;2.85;2.10;;;;;;;28.35;44.30;101998.97;10455158;28;20052;-68
2021/08/25 14:06:24;;;;;;;2.83;2.25;;;;;;;28.01;42.33;101988.53;10461144;28;20045;-65
2021/08/25 14:11:26;;;;;;;3.35;2.33;;;;;;;27.39;43.76;101976.59;10462405;28;20045;-66
2021/08/25 14:16:29;;;;;;;2.38;1.80;;;;;;;28.93;39.78;101974.34;10462505;28;20049;-65
2021/08/25 14:21:31;;;;;;;4.47;2.05;;;;;;;28.87;41.31;101986.69;10462302;28;20129;-66
2021/08/25 14:26:34;;;;;;;10.40;2.35;;;;;;;29.21;42.02;101981.91;10462163;28;20049;-66
2021/08/25 14:31:37;;;;;;;3.88;2.25;;;;;;;26.41;45.33;101971.09;10461687;28;20045;-66
2021/08/25 14:36:39;;;;;;;2.55;2.03;;;;;;;25.13;49.58;101971.78;10461054;28;20409;-65
2021/08/25 14:41:42;;;;;;;5.43;2.80;;;;;;;25.31;48.95;101949.47;10461571;28;20045;-67
2021/08/25 14:46:44;;;;;;;2.25;2.00;;;;;;;24.50;52.46;101951.25;10460798;28;20049;-66
2021/08/25 14:51:47;;;;;;;3.95;1.98;;;;;;;24.32;52.89;101935.16;10461082;28;20048;-66
2021/08/25 14:56:50;;;;;;;6.50;2.03;;;;;;;25.09;49.74;101934.72;10460505;28;20500;-65
2021/08/25 15:01:52;;;;;;;3.13;2.10;;;;;;;27.06;44.15;101925.50;10460239;28;20040;-68
2021/08/25 15:06:54;;;;;;;5.13;2.05;;;;;;;26.71;47.68;101920.50;10459703;28;20520;-66
2021/08/25 15:11:57;;;;;;;5.15;2.03;;;;;;;25.88;50.76;101922.94;10460166;28;20064;-67
2021/08/25 15:16:59;;;;;;;3.58;1.65;;;;;;;26.76;47.63;101912.78;10459657;28;20063;-66
2021/08/25 15:22:01;;;;;;;5.28;2.25;;;;;;;28.37;42.58;101907.22;10459925;28;20063;-66
2021/08/25 15:27:05;;;;;;;5.72;2.20;;;;;;;25.10;48.71;101905.09;10460100;28;20045;-67
2021/08/25 15:32:08;;;;;;;3.90;1.80;;;;;;;25.09;49.23;101898.03;10459125;28;20053;-66
2021/08/25 15:37:10;;;;;;;7.45;2.10;;;;;;;25.52;48.31;101901.69;10459062;28;20496;-66
2021/08/25 15:42:12;;;;;;;5.70;1.98;;;;;;;24.72;51.25;101890.22;10458921;28;20057;-66
2021/08/25 15:47:15;;;;;;;4.13;1.80;;;;;;;23.71;53.08;101896.47;10457368;28;20063;-65
2021/08/25 15:52:21;;;;;;;1.75;1.63;;;;;;;23.67;53.50;101873.69;10458644;28;20041;-66
2021/08/25 15:57:23;;;;;;;2.90;1.70;;;;;;;23.37;54.72;101873.00;10458021;28;20053;-68
2021/08/25 16:02:26;;;;;;;3.45;1.58;;;;;;;22.93;56.13;101877.97;10457905;28;20051;-66
2021/08/25 16:07:28;;;;;;;5.18;1.25;;;;;;;22.96;58.05;101878.53;10457981;28;20060;-67
2021/08/25 16:12:31;;;;;;;3.38;1.55;;;;;;;22.64;59.73;101878.84;10457860;28;20045;-67
2021/08/25 16:17:33;;;;;;;2.10;1.33;;;;;;;22.05;60.40;101880.59;10457374;28;20489;-66
2021/08/25 16:22:35;;;;;;;5.38;1.33;;;;;;;21.91;65.36;101873.81;10457588;28;20060;-67
2021/08/25 16:27:38;;;;;;;4.25;0.95;;;;;;;21.90;65.85;101866.78;10455658;28;20504;-67
2021/08/25 16:32:41;;;;;;;2.20;1.20;;;;;;;21.36;67.31;101878.63;10456874;28;20045;-65
2021/08/25 16:37:43;;;;;;;1.92;1.00;;;;;;;21.11;67.00;101868.25;10456839;28;20049;-67
2021/08/25 16:42:47;;;;;;;2.47;0.88;;;;;;;21.09;68.64;101864.03;10457651;28;20053;-68
2021/08/25 16:47:50;;;;;;;1.20;0.55;;;;;;;20.71;70.15;101861.00;10456393;28;20041;-67
2021/08/25 16:52:52;;;;;;;1.65;0.60;;;;;;;20.95;70.49;101863.38;10457610;28;20052;-68
2021/08/25 16:57:56;;;;;;;2.20;0.60;;;;;;;21.11;70.60;101856.75;10456777;28;20440;-65
2021/08/25 17:02:59;;;;;;;1.00;0.52;;;;;;;20.37;73.14;101839.81;10456741;28;20049;-67
2021/08/25 17:08:03;;;;;;;0.38;0.35;;;;;;;20.40;74.33;101844.03;10456350;28;20132;-66
2021/08/25 17:13:06;;;;;;;1.38;0.47;;;;;;;19.74;74.09;101826.31;10456158;28;20049;-66
2021/08/25 17:18:08;;;;;;;0.70;0.47;;;;;;;19.95;73.14;101830.88;10455879;28;20060;-67
2021/08/25 17:23:11;;;;;;;1.75;0.60;;;;;;;20.13;72.32;101824.06;10455957;28;20055;-67
2021/08/25 17:28:21;;;;;;;2.53;2.33;;;;;;;19.50;75.91;101826.41;10455519;28;20374;-68
2021/08/25 17:33:23;;;;;;;3.13;1.38;;;;;;;19.58;76.28;101821.34;10455461;28;20048;-65
2021/08/25 17:38:26;;;;;;;2.17;1.40;;;;;;;19.58;78.76;101816.03;10457319;28;20059;-67
2021/08/25 17:43:28;;;;;;;0.95;0.60;;;;;;;19.25;78.63;101817.75;10464458;28;20045;-67
2021/08/25 17:48:31;;;;;;;0.93;0.60;;;;;;;19.23;80.26;101813.50;10463275;28;20056;-66
2021/08/25 17:53:33;;;;;;;0.60;0.50;;;;;;;19.12;80.57;101812.53;10462754;28;20060;-66
2021/08/25 17:58:38;;;;;;;0.77;0.77;;;;;;;19.38;80.92;101809.66;10462926;28;20136;-66
2021/08/25 18:03:40;;;;;;;2.92;0.68;;;;;;;18.92;83.66;101822.03;10462841;28;20049;-66
2021/08/25 18:08:43;;;;;;;2.17;1.70;;;;;;;18.87;83.32;101815.41;10462884;28;20401;-68
2021/08/25 18:13:45;;;;;;;1.50;1.20;;;;;;;18.61;84.75;101818.19;10462963;28;20067;-67
2021/08/25 18:18:48;;;;;;;1.50;1.30;;;;;;;18.79;82.96;101821.25;10462076;28;20055;-66
2021/08/25 18:23:52;;;;;;;1.00;0.60;;;;;;;18.53;84.14;101820.59;10462158;28;20055;-67
2021/08/25 18:28:55;;;;;;;1.42;1.00;;;;;;;18.52;84.19;101810.94;10462073;28;20057;-67
2021/08/25 18:33:58;;;;;;;1.25;0.90;;;;;;;18.03;85.19;101815.41;10461536;28;20493;-65
2021/08/25 18:39:00;;;;;;;3.95;0.50;;;;;;;18.08;85.69;101807.13;10459973;28;20405;-67
2021/08/25 18:44:03;;;;;;;2.10;0.73;;;;;;;17.90;85.89;101799.53;10461118;28;20397;-66
2021/08/25 18:49:05;;;;;;;3.63;1.17;;;;;;;17.82;86.27;101812.50;10460335;28;20049;-67
2021/08/25 18:54:07;;;;;;;1.02;0.93;;;;;;;17.99;83.94;101796.25;10460507;28;20041;-66
2021/08/25 18:59:10;;;;;;;1.67;1.13;;;;;;;17.56;84.03;101785.22;10461085;28;20045;-65
2021/08/25 19:04:12;;;;;;;4.00;1.73;;;;;;;17.76;84.37;101795.22;10460709;28;20052;-67
2021/08/25 19:09:15;;;;;;;2.72;1.58;;;;;;;17.64;85.51;101786.34;10460665;28;20053;-65
2021/08/25 19:14:17;;;;;;;2.95;2.00;;;;;;;17.77;86.82;101788.09;10460400;28;20045;-67
2021/08/25 19:19:19;;;;;;;2.80;1.80;;;;;;;17.79;87.01;101786.22;10459654;28;20503;-67
2021/08/25 19:24:22;;;;;;;1.45;1.35;;;;;;;17.87;85.98;101788.31;10459864;28;20060;-65
2021/08/25 19:29:24;;;;;;;1.35;1.25;;;;;;;17.53;88.69;101782.78;10459573;28;20045;-67
2021/08/25 19:34:26;;;;;;;4.88;1.95;;;;;;;17.33;90.75;101766.53;10459326;28;20045;-66
2021/08/25 19:39:28;;;;;;;2.42;2.05;;;;;;;17.41;90.54;101774.75;10459160;28;20053;-66
2021/08/25 19:44:31;;;;;;;3.92;1.80;;;;;;;17.34;93.44;101773.50;10459240;28;20057;-68
2021/08/25 19:49:34;;;;;;;4.15;2.30;;;;;;;17.30;93.43;101787.06;10458715;28;20056;-66
2021/08/25 19:54:37;;;;;;;2.78;2.28;;;;;;;17.23;95.87;101789.28;10458431;28;20444;-65
2021/08/25 19:59:40;;;;;;;4.70;2.10;;;;;;;17.02;99.60;101786.34;10458254;28;20073;-67
2021/08/25 20:04:42;;;;;;;3.22;1.90;;;;;;;16.68;100.00;101778.88;10458094;28;20040;-67
2021/08/25 20:09:45;;;;;;;3.13;2.42;;;;;;;16.74;100.00;101768.84;10457768;28;20049;-67
2021/08/25 20:14:47;;;;;;;3.88;2.55;;;;;;;16.63;100.00;101761.66;10457840;28;20071;-66
2021/08/25 20:19:49;;;;;;;3.75;2.25;;;;;;;16.81;100.00;101756.88;10457432;28;20054;-67
2021/08/25 20:24:52;;;;;;;3.63;2.13;;;;;;;16.51;100.00;101753.56;10458362;28;20071;-65
2021/08/25 20:29:55;;;;;;;3.45;2.97;;;;;;;16.83;100.00;101749.72;10456961;28;20052;-66
2021/08/25 20:34:57;;;;;;;4.07;2.50;;;;;;;16.61;100.00;101745.88;10456285;28;20393;-65
2021/08/25 20:40:00;;;;;;;2.67;2.33;;;;;;;16.87;100.00;101749.41;10457179;28;20041;-67
2021/08/25 20:45:03;;;;;;;4.82;3.13;;;;;;;16.74;100.00;101747.69;10456816;28;20045;-66
2021/08/25 20:50:05;;;;;;;3.55;2.92;;;;;;;16.98;100.00;101738.09;10456899;28;20051;-68
2021/08/25 20:55:09;;;;;;;2.70;2.38;;;;;;;16.84;100.00;101731.09;10456783;28;20056;-66
2021/08/25 21:00:12;;;;;;;3.65;2.40;;;;;;;16.86;100.00;101723.06;10456333;28;20048;-66
2021/08/25 21:05:14;;;;;;;6.57;3.25;;;;;;;16.85;100.00;101716.94;10456521;28;20045;-65
2021/08/25 21:10:17;;;;;;;3.28;2.97;;;;;;;16.67;100.00;101697.00;10456179;28;20041;-66
2021/08/25 21:15:19;;;;;;;5.60;2.38;;;;;;;16.68;100.00;101696.91;10461819;28;20056;-66
2021/08/25 21:20:21;;;;;;;4.20;2.75;;;;;;;16.67;100.00;101689.09;10464077;28;20061;-66
2021/08/25 21:25:24;;;;;;;4.57;2.72;;;;;;;16.64;100.00;101687.50;10464818;28;20049;-66
2021/08/25 21:30:28;;;;;;;3.05;2.75;;;;;;;16.56;100.00;101686.31;10464022;28;20057;-67
2021/08/25 21:35:30;;;;;;;3.15;2.53;;;;;;;16.69;100.00;101676.59;10463920;28;20056;-66
2021/08/25 21:40:32;;;;;;;6.75;3.50;;;;;;;16.61;100.00;101676.28;10464130;28;20041;-65
2021/08/25 21:45:35;;;;;;;2.33;2.10;;;;;;;16.45;100.00;101687.91;10463460;28;20049;-66
2021/08/25 21:50:38;;;;;;;4.85;2.80;;;;;;;16.62;100.00;101675.34;10463702;28;20081;-66
2021/08/25 21:55:41;;;;;;;5.90;3.35;;;;;;;16.69;100.00;101655.44;10463072;28;20049;-66
2021/08/25 22:00:48;;;;;;;5.32;2.63;;;;;;;16.48;100.00;101663.91;10462745;28;20049;-66
2021/08/25 22:05:51;;;;;;;9.50;3.08;;;;;;;16.39;100.00;101661.91;10462733;28;20053;-65
2021/08/25 22:10:53;;;;;;;8.18;4.18;;;;;;;16.41;100.00;101660.00;10462625;28;20053;-69
2021/08/25 22:15:56;;;;;;;3.97;2.97;;;;;;;16.49;100.00;101656.81;10462017;28;20056;-66
2021/08/25 22:20:58;;;;;;;6.15;3.50;;;;;;;16.26;100.00;101659.25;10461780;28;20428;-67
2021/08/25 22:26:00;;;;;;;5.28;3.22;;;;;;;16.32;100.00;101643.00;10461956;28;20068;-66
2021/08/25 22:31:03;;;;;;;3.85;3.10;;;;;;;16.36;100.00;101633.06;10461856;28;20052;-67
2021/08/25 22:36:06;;;;;;;3.47;2.85;;;;;;;16.59;100.00;101630.59;10461362;28;20075;-67
2021/08/25 22:41:09;;;;;;;3.45;3.00;;;;;;;16.50;100.00;101624.16;10461361;28;20098;-67
2021/08/25 22:46:11;;;;;;;4.15;3.05;;;;;;;16.49;100.00;101601.31;10461131;28;20052;-66
2021/08/25 22:51:13;;;;;;;3.67;2.95;;;;;;;16.67;100.00;101607.94;10460849;28;20045;-66
2021/08/25 22:56:16;;;;;;;8.70;3.20;;;;;;;16.43;100.00;101594.66;10460941;28;20060;-65
2021/08/25 23:01:18;;;;;;;3.10;2.83;;;;;;;16.25;100.00;101590.66;10460746;28;20048;-66